createdAt,value
2023-03-28T00:01:07.280Z,1.20
2023-03-28T00:03:39.662Z,0.96
2023-03-28T00:06:12.774Z,1.05
2023-03-28T00:08:40.210Z,0.75
2023-03-28T00:11:10.064Z,0.88
2023-03-28T00:13:37.231Z,0.65
2023-03-28T00:16:06.856Z,1.23
2023-03-28T00:18:37.530Z,1.23
2023-03-28T00:21:05.479Z,1.12
2023-03-28T00:23:33.846Z,1.18
2023-03-28T00:26:07.667Z,0.76
2023-03-28T00:28:35.109Z,1.04
2023-03-28T00:31:06.124Z,1.28
2023-03-28T00:33:33.056Z,1.04
2023-03-28T00:35:59.734Z,0.78
2023-03-28T00:38:27.519Z,1.01
2023-03-28T00:40:58.537Z,1.23
2023-03-28T00:43:45.903Z,1.26
2023-03-28T00:46:22.711Z,0.99
2023-03-28T00:48:53.533Z,0.80
2023-03-28T00:51:32.004Z,0.77
2023-03-28T00:54:00.849Z,0.53
2023-03-28T00:56:32.174Z,0.59
2023-03-28T00:59:02.901Z,0.87
2023-03-28T01:01:29.400Z,1.10
2023-03-28T01:04:02.910Z,0.87
2023-03-28T01:06:34.714Z,1.22
2023-03-28T01:09:04.611Z,1.45
2023-03-28T01:11:32.869Z,1.61
2023-03-28T01:14:02.131Z,1.23
2023-03-28T01:16:30.857Z,1.59
2023-03-28T01:19:02.550Z,1.29
2023-03-28T01:22:00.994Z,1.14
2023-03-28T01:25:06.673Z,0.82
2023-03-28T01:28:02.317Z,0.90
2023-03-28T01:30:40.994Z,0.24
2023-03-28T01:33:10.435Z,0.09
2023-03-28T01:35:46.299Z,0.01
2023-03-28T01:38:31.811Z,-0.17
2023-03-28T01:41:23.696Z,-0.25
2023-03-28T01:44:05.822Z,0.08
2023-03-28T01:47:00.122Z,0.28
2023-03-28T01:49:35.874Z,0.17
2023-03-28T01:52:30.069Z,0.29
2023-03-28T01:55:21.367Z,0.34
2023-03-28T01:58:11.564Z,0.28
2023-03-28T02:00:43.227Z,-0.04
2023-03-28T02:03:22.796Z,-0.00
2023-03-28T02:05:50.265Z,-0.04
2023-03-28T02:08:18.775Z,-0.11
2023-03-28T02:10:46.683Z,-0.35
2023-03-28T02:13:25.268Z,-0.07
2023-03-28T02:16:00.463Z,0.29
2023-03-28T02:18:37.026Z,0.40
2023-03-28T02:21:27.792Z,-0.09
2023-03-28T02:23:56.034Z,0.49
2023-03-28T02:26:25.127Z,0.38
2023-03-28T02:28:54.925Z,0.12
2023-03-28T02:31:22.448Z,0.34
2023-03-28T02:33:50.648Z,0.41
2023-03-28T02:36:38.056Z,0.38
2023-03-28T02:39:23.327Z,0.54
2023-03-28T02:41:59.025Z,0.76
2023-03-28T02:44:31.448Z,0.52
2023-03-28T02:47:09.339Z,0.69
2023-03-28T02:50:04.628Z,0.79
2023-03-28T02:52:52.141Z,0.76
2023-03-28T02:55:46.245Z,0.73
2023-03-28T02:58:26.343Z,0.70
2023-03-28T03:00:53.967Z,0.95
2023-03-28T03:03:21.768Z,0.67
2023-03-28T03:05:48.250Z,0.81
2023-03-28T03:08:15.564Z,0.91
2023-03-28T03:10:42.052Z,0.85
2023-03-28T03:13:08.534Z,0.79
2023-03-28T03:15:35.599Z,0.39
2023-03-28T03:18:02.277Z,0.78
2023-03-28T03:20:33.436Z,0.90
2023-03-28T03:23:01.100Z,0.33
2023-03-28T03:25:28.501Z,0.56
2023-03-28T03:27:55.012Z,0.75
2023-03-28T03:30:21.608Z,0.78
2023-03-28T03:32:48.112Z,0.63
2023-03-28T03:35:14.643Z,0.63
2023-03-28T03:37:41.418Z,0.44
2023-03-28T03:40:09.768Z,0.78
2023-03-28T03:42:37.024Z,0.78
2023-03-28T03:45:04.255Z,0.56
2023-03-28T03:47:30.900Z,0.67
2023-03-28T03:49:57.345Z,0.69
2023-03-28T03:52:23.831Z,0.64
2023-03-28T03:54:50.565Z,0.48
2023-03-28T03:57:17.469Z,0.65
2023-03-28T03:59:44.062Z,0.56
2023-03-28T04:02:10.553Z,0.27
2023-03-28T04:04:37.166Z,0.23
2023-03-28T04:07:03.623Z,0.20
2023-03-28T04:09:30.099Z,0.35
2023-03-28T04:11:56.674Z,0.12
2023-03-28T04:14:23.082Z,0.28
2023-03-28T04:16:53.814Z,0.43
2023-03-28T04:19:20.434Z,0.16
2023-03-28T04:21:48.514Z,0.05
2023-03-28T04:24:16.016Z,0.38
2023-03-28T04:26:43.716Z,-0.11
2023-03-28T04:29:10.472Z,0.28
2023-03-28T04:31:39.427Z,0.36
2023-03-28T04:34:06.805Z,0.08
2023-03-28T04:36:33.515Z,-0.00
2023-03-28T04:39:02.414Z,-0.00
2023-03-28T04:41:32.127Z,0.00
2023-03-28T04:43:58.851Z,0.09
2023-03-28T04:46:25.694Z,0.23
2023-03-28T04:48:56.642Z,-0.14
2023-03-28T04:51:24.910Z,0.13
2023-03-28T04:53:51.300Z,0.26
2023-03-28T04:56:17.796Z,0.14
2023-03-28T04:58:44.202Z,0.43
2023-03-28T05:01:10.674Z,-0.09
2023-03-28T05:03:37.927Z,-0.40
2023-03-28T05:06:05.393Z,-0.25
2023-03-28T05:08:32.893Z,0.09
2023-03-28T05:10:59.645Z,-0.16
2023-03-28T05:13:26.270Z,0.04
2023-03-28T05:15:52.859Z,0.05
2023-03-28T05:18:19.394Z,0.26
2023-03-28T05:20:45.912Z,0.29
2023-03-28T05:23:12.676Z,0.31
2023-03-28T05:25:39.153Z,0.38
2023-03-28T05:28:05.984Z,0.02
2023-03-28T05:30:32.786Z,-0.01
2023-03-28T05:33:00.686Z,-0.47
2023-03-28T05:35:27.285Z,-0.01
2023-03-28T05:37:53.686Z,0.35
2023-03-28T05:40:20.477Z,0.09
2023-03-28T05:42:46.910Z,-0.13
2023-03-28T05:45:13.437Z,-0.05
2023-03-28T05:47:40.085Z,-0.14
2023-03-28T05:50:07.808Z,-0.42
2023-03-28T05:52:34.257Z,-0.09
2023-03-28T05:55:00.735Z,0.08
2023-03-28T05:57:27.162Z,-0.07
2023-03-28T05:59:53.817Z,0.39
2023-03-28T06:02:22.014Z,0.59
2023-03-28T06:04:48.501Z,-0.05
2023-03-28T06:07:15.871Z,0.05
2023-03-28T06:09:42.895Z,0.31
2023-03-28T06:12:09.775Z,0.13
2023-03-28T06:14:36.249Z,0.41
2023-03-28T06:17:02.831Z,0.34
2023-03-28T06:19:29.340Z,0.22
2023-03-28T06:21:55.879Z,0.24
2023-03-28T06:24:22.798Z,0.71
2023-03-28T06:26:49.200Z,0.92
2023-03-28T06:29:16.258Z,0.68
2023-03-28T06:31:43.047Z,0.71
2023-03-28T06:34:09.624Z,0.81
2023-03-28T06:36:36.099Z,0.55
2023-03-28T06:39:02.924Z,0.34
2023-03-28T06:41:29.627Z,1.09
2023-03-28T06:43:56.042Z,0.94
2023-03-28T06:46:22.530Z,0.80
2023-03-28T06:48:49.032Z,0.65
2023-03-28T06:51:15.545Z,0.60
2023-03-28T06:53:42.034Z,1.01
2023-03-28T06:56:08.969Z,0.80
2023-03-28T06:58:35.525Z,1.11
2023-03-28T07:01:02.513Z,0.98
2023-03-28T07:03:32.145Z,1.03
2023-03-28T07:05:58.911Z,0.75
2023-03-28T07:08:25.452Z,0.94
2023-03-28T07:10:51.896Z,1.36
2023-03-28T07:13:18.334Z,1.44
2023-03-28T07:15:44.894Z,1.40
2023-03-28T07:18:11.403Z,0.80
2023-03-28T07:20:39.934Z,1.22
2023-03-28T07:23:06.892Z,1.44
2023-03-28T07:25:34.094Z,1.59
2023-03-28T07:28:00.568Z,1.94
2023-03-28T07:30:27.323Z,1.98
2023-03-28T07:33:04.526Z,2.14
2023-03-28T07:35:41.824Z,2.25
2023-03-28T07:38:08.357Z,1.95
2023-03-28T07:40:34.869Z,2.22
2023-03-28T07:43:01.506Z,1.99
2023-03-28T07:45:28.471Z,2.53
2023-03-28T07:47:55.065Z,2.26
2023-03-28T07:50:24.442Z,2.57
2023-03-28T07:52:57.230Z,2.24
2023-03-28T07:55:25.880Z,2.62
2023-03-28T07:57:52.685Z,2.51
2023-03-28T08:00:22.475Z,2.56
2023-03-28T08:02:49.689Z,2.53
2023-03-28T08:05:16.668Z,2.73
2023-03-28T08:07:45.759Z,2.94
2023-03-28T08:10:13.270Z,2.74
2023-03-28T08:12:39.782Z,2.90
2023-03-28T08:15:07.232Z,3.02
2023-03-28T08:17:34.003Z,3.20
2023-03-28T08:20:00.524Z,3.10
2023-03-28T08:22:27.079Z,3.14
2023-03-28T08:24:53.557Z,3.19
2023-03-28T08:27:19.933Z,3.33
2023-03-28T08:29:46.473Z,3.27
2023-03-28T08:32:13.689Z,3.26
2023-03-28T08:34:40.543Z,3.36
2023-03-28T08:37:07.080Z,3.29
2023-03-28T08:39:34.712Z,3.51
2023-03-28T08:42:16.454Z,3.57
2023-03-28T08:44:48.320Z,3.30
2023-03-28T08:47:46.539Z,3.42
2023-03-28T08:50:24.436Z,3.49
2023-03-28T08:52:51.795Z,3.63
2023-03-28T08:55:32.480Z,3.73
2023-03-28T08:57:59.806Z,3.65
2023-03-28T09:00:36.885Z,3.57
2023-03-28T09:03:11.935Z,3.70
2023-03-28T09:05:52.271Z,3.68
2023-03-28T09:08:27.741Z,3.82
2023-03-28T09:11:07.731Z,3.90
2023-03-28T09:13:52.417Z,3.94
2023-03-28T09:16:34.110Z,3.84
2023-03-28T09:19:07.048Z,3.92
2023-03-28T09:21:46.136Z,3.82
2023-03-28T09:24:25.829Z,3.90
2023-03-28T09:27:29.289Z,3.44
2023-03-28T09:30:03.935Z,3.76
2023-03-28T09:32:37.287Z,4.15
2023-03-28T09:35:16.303Z,3.87
2023-03-28T09:37:46.917Z,3.80
2023-03-28T09:40:14.262Z,3.71
2023-03-28T09:42:49.676Z,3.77
2023-03-28T09:45:25.353Z,4.01
2023-03-28T09:47:52.459Z,3.89
2023-03-28T09:50:19.880Z,3.83
2023-03-28T09:52:48.610Z,3.53
2023-03-28T09:55:24.666Z,3.92
2023-03-28T09:58:12.246Z,3.99
2023-03-28T10:00:46.279Z,4.16
2023-03-28T10:03:23.196Z,4.02
2023-03-28T10:05:51.645Z,4.15
2023-03-28T10:08:23.336Z,4.18
2023-03-28T10:11:13.213Z,4.23
2023-03-28T10:13:42.412Z,4.07
2023-03-28T10:16:11.195Z,3.95
2023-03-28T10:18:40.500Z,4.29
2023-03-28T10:21:13.102Z,4.24
2023-03-28T10:23:42.525Z,4.16
2023-03-28T10:26:12.914Z,4.32
2023-03-28T10:28:43.287Z,4.29
2023-03-28T10:31:22.300Z,4.29
2023-03-28T10:33:52.858Z,4.02
2023-03-28T10:36:43.558Z,4.42
2023-03-28T10:39:39.481Z,4.43
2023-03-28T10:42:05.959Z,4.34
2023-03-28T10:44:37.675Z,4.51
2023-03-28T10:47:08.877Z,4.68
2023-03-28T10:49:44.927Z,4.62
2023-03-28T10:52:22.682Z,4.78
2023-03-28T10:55:04.165Z,4.93
2023-03-28T10:57:42.721Z,4.74
2023-03-28T11:00:23.851Z,4.73
2023-03-28T11:02:53.261Z,5.00
2023-03-28T11:05:42.387Z,4.66
2023-03-28T11:08:17.878Z,4.88
2023-03-28T11:10:57.385Z,4.50
2023-03-28T11:13:49.037Z,4.96
2023-03-28T11:16:25.980Z,4.85
2023-03-28T11:19:07.162Z,5.20
2023-03-28T11:21:52.303Z,5.25
2023-03-28T11:24:56.536Z,5.23
2023-03-28T11:27:42.072Z,5.32
2023-03-28T11:30:20.972Z,5.13
2023-03-28T11:33:04.265Z,4.92
2023-03-28T11:35:41.952Z,4.83
2023-03-28T11:38:14.482Z,5.16
2023-03-28T11:40:59.510Z,4.94
2023-03-28T11:43:36.020Z,5.06
2023-03-28T11:46:13.814Z,5.24
2023-03-28T11:48:49.888Z,5.16
2023-03-28T11:51:23.092Z,5.22
2023-03-28T11:54:05.222Z,5.29
2023-03-28T11:56:43.946Z,5.30
2023-03-28T11:59:17.600Z,5.37
2023-03-28T12:01:47.934Z,5.29
2023-03-28T12:04:21.439Z,5.59
2023-03-28T12:07:08.940Z,5.30
2023-03-28T12:10:03.231Z,5.44
2023-03-28T12:13:02.203Z,5.44
2023-03-28T12:15:41.173Z,5.44
2023-03-28T12:18:15.668Z,5.33
2023-03-28T12:20:56.015Z,5.37
2023-03-28T12:23:43.018Z,5.56
2023-03-28T12:26:38.802Z,5.30
2023-03-28T12:29:22.935Z,5.23
2023-03-28T12:31:57.370Z,5.49
2023-03-28T12:34:27.150Z,5.69
2023-03-28T12:37:14.713Z,5.36
2023-03-28T12:40:08.306Z,5.20
2023-03-28T12:42:36.657Z,5.45
2023-03-28T12:45:09.437Z,5.39
2023-03-28T12:47:41.636Z,5.47
2023-03-28T12:50:25.927Z,5.71
2023-03-28T12:52:53.538Z,5.64
2023-03-28T12:55:26.768Z,5.97
2023-03-28T12:58:11.100Z,5.83
2023-03-28T13:01:06.882Z,5.63
2023-03-28T13:03:42.347Z,5.68
2023-03-28T13:06:24.332Z,5.44
2023-03-28T13:09:23.024Z,5.39
2023-03-28T13:12:03.241Z,5.21
2023-03-28T13:14:42.644Z,5.36
2023-03-28T13:17:23.322Z,5.58
2023-03-28T13:19:51.993Z,5.97
2023-03-28T13:22:53.607Z,5.79
2023-03-28T13:25:22.978Z,5.53
2023-03-28T13:27:51.713Z,6.02
2023-03-28T13:30:24.745Z,6.00
2023-03-28T13:32:54.417Z,5.85
2023-03-28T13:35:39.235Z,5.60
2023-03-28T13:38:27.516Z,5.38
2023-03-28T13:41:35.774Z,5.26
2023-03-28T13:44:06.459Z,5.57
2023-03-28T13:46:43.104Z,5.78
2023-03-28T13:49:31.370Z,5.69
2023-03-28T13:52:19.414Z,5.83
2023-03-28T13:54:46.289Z,5.65
2023-03-28T13:57:17.613Z,5.84
2023-03-28T13:59:59.681Z,5.60
2023-03-28T14:02:29.145Z,5.73
2023-03-28T14:05:04.045Z,6.08
2023-03-28T14:07:30.918Z,6.04
2023-03-28T14:09:58.178Z,5.39
2023-03-28T14:12:28.822Z,5.62
2023-03-28T14:14:58.517Z,5.77
2023-03-28T14:17:36.314Z,5.74
2023-03-28T14:20:05.850Z,6.23
2023-03-28T14:22:43.285Z,6.19
2023-03-28T14:25:21.423Z,5.97
2023-03-28T14:27:56.740Z,5.98
2023-03-28T14:30:32.004Z,5.91
2023-03-28T14:33:18.663Z,6.08
2023-03-28T14:35:57.628Z,5.65
2023-03-28T14:38:36.335Z,6.15
2023-03-28T14:41:22.522Z,5.94
2023-03-28T14:43:55.025Z,5.98
2023-03-28T14:46:32.807Z,5.96
2023-03-28T14:49:03.684Z,5.94
2023-03-28T14:51:40.353Z,6.17
2023-03-28T14:54:12.417Z,6.17
2023-03-28T14:56:39.144Z,6.11
2023-03-28T14:59:07.396Z,6.33
2023-03-28T15:01:34.595Z,6.38
2023-03-28T15:04:09.887Z,6.20
2023-03-28T15:06:57.476Z,6.28
2023-03-28T15:09:26.518Z,6.49
2023-03-28T15:11:53.088Z,6.33
2023-03-28T15:14:35.860Z,6.23
2023-03-28T15:17:02.827Z,6.19
2023-03-28T15:19:38.893Z,6.15
2023-03-28T15:22:11.477Z,6.41
2023-03-28T15:24:39.031Z,6.51
2023-03-28T15:27:07.571Z,6.43
2023-03-28T15:29:37.743Z,6.42
2023-03-28T15:32:14.936Z,6.57
2023-03-28T15:34:45.741Z,6.23
2023-03-28T15:37:19.827Z,6.49
2023-03-28T15:39:49.536Z,6.49
2023-03-28T15:42:19.183Z,6.53
2023-03-28T15:45:22.426Z,6.26
2023-03-28T15:47:53.256Z,6.16
2023-03-28T15:50:29.979Z,6.11
2023-03-28T15:53:02.589Z,6.26
2023-03-28T15:55:31.199Z,6.02
2023-03-28T15:57:58.244Z,6.15
2023-03-28T16:00:45.630Z,6.06
2023-03-28T16:03:32.822Z,6.14
2023-03-28T16:06:14.085Z,6.18
2023-03-28T16:08:47.064Z,6.14
2023-03-28T16:11:23.283Z,6.11
2023-03-28T16:13:50.879Z,6.22
2023-03-28T16:16:24.623Z,5.83
2023-03-28T16:18:51.149Z,6.08
2023-03-28T16:21:19.489Z,6.37
2023-03-28T16:23:46.790Z,6.05
2023-03-28T16:26:14.287Z,6.05
2023-03-28T16:28:41.019Z,6.13
2023-03-28T16:33:38.993Z,6.54
2023-03-28T16:36:05.776Z,6.52
2023-03-28T16:38:32.321Z,6.21
2023-03-28T16:40:58.765Z,6.22
2023-03-28T16:43:25.248Z,6.17
2023-03-28T16:45:52.333Z,6.23
2023-03-28T16:48:18.841Z,6.02
2023-03-28T16:51:05.414Z,6.20
2023-03-28T16:53:36.272Z,6.38
2023-03-28T16:56:03.056Z,6.29
2023-03-28T16:58:30.009Z,6.36
2023-03-28T17:00:56.697Z,6.30
2023-03-28T17:05:49.898Z,6.17
2023-03-28T17:08:16.366Z,6.12
2023-03-28T17:10:43.511Z,6.11
2023-03-28T17:13:10.586Z,6.12
2023-03-28T17:15:37.104Z,6.04
2023-03-28T17:18:05.635Z,5.93
2023-03-28T17:20:32.258Z,5.75
2023-03-28T17:22:58.814Z,5.76
2023-03-28T17:25:25.603Z,5.76
2023-03-28T17:27:52.121Z,5.70
2023-03-28T17:30:18.639Z,5.59
2023-03-28T17:32:45.507Z,5.41
2023-03-28T17:35:12.250Z,5.41
2023-03-28T17:37:39.362Z,5.21
2023-03-28T17:40:06.882Z,5.37
2023-03-28T17:42:33.429Z,5.40
2023-03-28T17:45:00.003Z,5.21
2023-03-28T17:47:26.584Z,5.22
2023-03-28T17:49:55.995Z,5.13
2023-03-28T17:52:22.729Z,5.17
2023-03-28T17:54:51.007Z,5.02
2023-03-28T17:57:18.558Z,5.23
2023-03-28T17:59:45.173Z,5.13
2023-03-28T18:02:11.639Z,5.12
2023-03-28T18:04:38.137Z,5.16
2023-03-28T18:07:15.625Z,5.13
2023-03-28T18:09:43.509Z,5.17
2023-03-28T18:12:10.096Z,5.05
2023-03-28T18:14:37.961Z,5.03
2023-03-28T18:17:05.386Z,5.06
2023-03-28T18:19:32.121Z,4.84
2023-03-28T18:21:58.907Z,4.77
2023-03-28T18:24:26.609Z,4.64
2023-03-28T18:26:53.449Z,4.63
2023-03-28T18:29:20.195Z,4.55
2023-03-28T18:31:47.230Z,4.66
2023-03-28T18:34:14.085Z,4.61
2023-03-28T18:36:41.920Z,4.61
2023-03-28T18:39:10.304Z,4.63
2023-03-28T18:41:37.613Z,4.51
2023-03-28T18:44:04.794Z,4.50
2023-03-28T18:46:31.352Z,4.48
2023-03-28T18:49:01.394Z,4.59
2023-03-28T18:51:28.898Z,4.58
2023-03-28T18:53:55.561Z,4.58
2023-03-28T18:56:22.737Z,4.55
2023-03-28T18:58:50.301Z,4.51
2023-03-28T19:01:17.418Z,4.43
2023-03-28T19:03:44.909Z,4.36
2023-03-28T19:06:13.272Z,4.36
2023-03-28T19:08:40.389Z,4.26
2023-03-28T19:11:13.258Z,4.23
2023-03-28T19:13:41.028Z,4.15
2023-03-28T19:16:13.347Z,4.28
2023-03-28T19:18:41.679Z,4.18
2023-03-28T19:21:09.366Z,4.20
2023-03-28T19:23:36.915Z,4.14
2023-03-28T19:26:05.642Z,4.11
2023-03-28T19:28:32.515Z,4.06
2023-03-28T19:31:01.517Z,4.07
2023-03-28T19:33:28.635Z,4.16
2023-03-28T19:35:55.961Z,3.98
2023-03-28T19:38:24.409Z,3.95
2023-03-28T19:40:57.176Z,4.02
2023-03-28T19:43:24.325Z,3.95
2023-03-28T19:45:50.859Z,3.91
2023-03-28T19:48:17.372Z,3.89
2023-03-28T19:50:44.316Z,3.84
2023-03-28T19:53:11.289Z,3.82
2023-03-28T19:55:37.770Z,3.68
2023-03-28T19:58:07.272Z,3.60
2023-03-28T20:00:33.736Z,3.67
2023-03-28T20:03:00.763Z,3.63
2023-03-28T20:05:27.585Z,3.59
2023-03-28T20:07:54.008Z,3.43
2023-03-28T20:10:20.733Z,3.44
2023-03-28T20:12:47.224Z,3.43
2023-03-28T20:15:13.791Z,3.33
2023-03-28T20:17:40.221Z,3.38
2023-03-28T20:20:08.166Z,3.29
2023-03-28T20:22:35.110Z,3.25
2023-03-28T20:25:01.785Z,3.10
2023-03-28T20:27:29.162Z,3.20
2023-03-28T20:29:55.722Z,3.17
2023-03-28T20:32:22.144Z,3.00
2023-03-28T20:34:48.590Z,3.02
2023-03-28T20:37:15.003Z,2.94
2023-03-28T20:39:41.790Z,2.67
2023-03-28T20:42:08.985Z,2.58
2023-03-28T20:44:38.530Z,2.31
2023-03-28T20:47:07.570Z,2.24
2023-03-28T20:49:34.410Z,2.39
2023-03-28T20:52:01.715Z,2.38
2023-03-28T20:54:28.450Z,2.24
2023-03-28T20:56:55.763Z,2.09
2023-03-28T20:59:23.744Z,2.17
2023-03-28T21:01:50.169Z,2.14
2023-03-28T21:04:17.007Z,2.14
2023-03-28T21:06:44.916Z,2.20
2023-03-28T21:09:15.557Z,2.28
2023-03-28T21:11:42.186Z,2.36
2023-03-28T21:14:11.724Z,2.34
2023-03-28T21:16:38.311Z,2.47
2023-03-28T21:19:05.149Z,2.40
2023-03-28T21:21:33.783Z,2.38
2023-03-28T21:24:01.577Z,2.43
2023-03-28T21:26:29.075Z,2.46
2023-03-28T21:28:55.802Z,2.38
2023-03-28T21:31:26.059Z,2.22
2023-03-28T21:33:55.386Z,2.23
2023-03-28T21:36:22.133Z,2.26
2023-03-28T21:38:48.737Z,2.29
2023-03-28T21:41:15.900Z,2.18
2023-03-28T21:43:42.821Z,1.97
2023-03-28T21:46:11.245Z,2.01
2023-03-28T21:48:38.068Z,2.04
2023-03-28T21:51:05.164Z,1.95
2023-03-28T21:53:34.820Z,1.80
2023-03-28T21:56:01.802Z,1.78
2023-03-28T21:58:31.774Z,1.73
2023-03-28T22:00:59.518Z,1.79
2023-03-28T22:03:27.183Z,1.83
2023-03-28T22:05:54.359Z,1.82
2023-03-28T22:08:22.105Z,1.87
2023-03-28T22:10:52.552Z,1.76
2023-03-28T22:13:20.164Z,1.58
2023-03-28T22:15:46.902Z,1.67
2023-03-28T22:18:13.619Z,1.53
2023-03-28T22:20:42.477Z,1.36
2023-03-28T22:23:09.977Z,1.27
2023-03-28T22:25:38.158Z,1.17
2023-03-28T22:28:09.246Z,1.12
2023-03-28T22:30:39.636Z,1.11
2023-03-28T22:33:08.985Z,1.17
2023-03-28T22:35:35.704Z,1.17
2023-03-28T22:38:02.626Z,1.21
2023-03-28T22:40:29.204Z,1.09
2023-03-28T22:42:55.924Z,1.03
2023-03-28T22:45:23.954Z,0.95
2023-03-28T22:47:50.626Z,0.87
2023-03-28T22:50:18.660Z,0.88
2023-03-28T22:52:46.437Z,0.90
2023-03-28T22:55:13.300Z,0.83
2023-03-28T22:57:41.964Z,0.91
2023-03-28T23:00:13.014Z,0.87
2023-03-28T23:02:39.500Z,0.85
2023-03-28T23:05:07.787Z,0.90
2023-03-28T23:07:36.472Z,0.97
2023-03-28T23:10:05.924Z,0.90
2023-03-28T23:12:32.347Z,0.81
2023-03-28T23:14:58.875Z,0.95
2023-03-28T23:17:26.230Z,0.84
2023-03-28T23:19:52.896Z,0.76
2023-03-28T23:22:19.361Z,0.88
2023-03-28T23:24:50.527Z,0.89
2023-03-28T23:27:20.549Z,0.78
2023-03-28T23:29:46.984Z,0.80
2023-03-28T23:32:13.478Z,0.86
2023-03-28T23:34:40.236Z,0.79
2023-03-28T23:37:07.092Z,0.90
2023-03-28T23:39:33.636Z,0.67
2023-03-28T23:42:00.167Z,0.81
2023-03-28T23:44:27.726Z,0.72
2023-03-28T23:46:56.095Z,0.70
2023-03-28T23:49:22.613Z,0.60
2023-03-28T23:51:49.083Z,0.60
2023-03-28T23:54:17.995Z,0.60
2023-03-28T23:56:44.923Z,0.62
2023-03-28T23:59:11.996Z,0.58
